createdAt,value
2019-01-19T00:00:38.849Z,-5.70
2019-01-19T00:03:40.077Z,-5.70
2019-01-19T00:06:24.492Z,-5.70
2019-01-19T00:09:07.851Z,-5.70
2019-01-19T00:12:29.699Z,-5.70
2019-01-19T00:15:07.271Z,-5.70
2019-01-19T00:18:02.222Z,-5.70
2019-01-19T00:20:48.907Z,-5.70
2019-01-19T00:23:58.866Z,-5.80
2019-01-19T00:26:59.864Z,-5.80
2019-01-19T00:30:05.966Z,-5.80
2019-01-19T00:33:34.035Z,-5.80
2019-01-19T00:36:11.119Z,-5.80
2019-01-19T00:39:10.273Z,-5.90
2019-01-19T00:42:26.020Z,-5.90
2019-01-19T00:45:15.144Z,-5.90
2019-01-19T00:48:25.545Z,-5.90
2019-01-19T00:51:47.621Z,-6.00
2019-01-19T00:54:28.079Z,-6.00
2019-01-19T00:57:08.838Z,-6.00
2019-01-19T00:59:42.018Z,-6.10
2019-01-19T01:02:30.959Z,-6.10
2019-01-19T01:05:11.035Z,-6.20
2019-01-19T01:08:12.784Z,-6.20
2019-01-19T01:10:52.654Z,-6.20
2019-01-19T01:13:35.692Z,-6.20
2019-01-19T01:16:24.490Z,-6.30
2019-01-19T01:19:42.078Z,-6.30
2019-01-19T01:22:52.606Z,-6.30
2019-01-19T01:25:28.397Z,-6.40
2019-01-19T01:28:06.328Z,-6.40
2019-01-19T01:30:57.483Z,-6.40
2019-01-19T01:34:03.383Z,-6.40
2019-01-19T01:37:04.478Z,-6.40
2019-01-19T01:39:58.820Z,-6.50
2019-01-19T01:43:23.892Z,-6.50
2019-01-19T01:46:19.655Z,-6.60
2019-01-19T01:49:46.274Z,-6.50
2019-01-19T01:52:54.998Z,-6.60
2019-01-19T01:55:54.442Z,-6.50
2019-01-19T01:58:54.977Z,-6.50
2019-01-19T02:01:36.510Z,-6.50
2019-01-19T02:04:22.305Z,-6.50
2019-01-19T02:07:05.915Z,-6.50
2019-01-19T02:09:45.251Z,-6.60
2019-01-19T02:13:00.254Z,-6.50
2019-01-19T02:15:44.754Z,-6.50
2019-01-19T02:18:53.415Z,-6.50
2019-01-19T02:21:50.212Z,-6.50
2019-01-19T02:24:52.581Z,-6.50
2019-01-19T02:27:47.584Z,-6.40
2019-01-19T02:30:56.437Z,-6.40
2019-01-19T02:34:04.189Z,-6.40
2019-01-19T02:37:18.513Z,-6.30
2019-01-19T02:40:13.256Z,-6.30
2019-01-19T02:43:01.669Z,-6.30
2019-01-19T02:46:20.034Z,-6.30
2019-01-19T02:49:28.595Z,-6.20
2019-01-19T02:52:30.485Z,-6.20
2019-01-19T02:55:40.154Z,-6.20
2019-01-19T02:58:33.135Z,-6.20
2019-01-19T03:01:37.111Z,-6.20
2019-01-19T03:04:49.674Z,-6.20
2019-01-19T03:08:08.702Z,-6.20
2019-01-19T03:11:10.328Z,-6.20
2019-01-19T03:14:29.469Z,-6.20
2019-01-19T03:17:47.313Z,-6.20
2019-01-19T03:20:32.741Z,-6.20
2019-01-19T03:23:33.435Z,-6.20
2019-01-19T03:26:22.640Z,-6.20
2019-01-19T03:29:17.391Z,-6.20
2019-01-19T03:32:36.516Z,-6.20
2019-01-19T03:35:43.780Z,-6.20
2019-01-19T03:38:49.741Z,-6.20
2019-01-19T03:41:56.722Z,-6.20
2019-01-19T03:45:11.398Z,-6.20
2019-01-19T03:48:03.301Z,-6.20
2019-01-19T03:51:18.557Z,-6.20
2019-01-19T03:54:12.298Z,-6.20
2019-01-19T03:57:22.339Z,-6.20
2019-01-19T04:00:23.274Z,-6.20
2019-01-19T04:03:28.855Z,-6.20
2019-01-19T04:06:19.174Z,-6.20
2019-01-19T04:09:32.261Z,-6.20
2019-01-19T04:12:21.858Z,-6.20
2019-01-19T04:15:10.078Z,-6.20
2019-01-19T04:18:19.482Z,-6.20
2019-01-19T04:21:40.158Z,-6.20
2019-01-19T04:24:14.261Z,-6.10
2019-01-19T04:26:45.499Z,-6.10
2019-01-19T04:29:14.361Z,-6.10
2019-01-19T04:31:43.236Z,-6.10
2019-01-19T04:34:12.166Z,-6.10
2019-01-19T04:36:41.218Z,-6.10
2019-01-19T04:39:11.709Z,-6.20
2019-01-19T04:41:40.874Z,-6.20
2019-01-19T04:44:10.370Z,-6.20
2019-01-19T04:46:39.445Z,-6.30
2019-01-19T04:49:08.917Z,-6.40
2019-01-19T04:51:37.783Z,-6.40
2019-01-19T04:54:06.962Z,-6.40
2019-01-19T04:56:35.829Z,-6.50
2019-01-19T04:59:04.703Z,-6.50
2019-01-19T05:01:33.947Z,-6.50
2019-01-19T05:04:02.889Z,-6.50
2019-01-19T05:06:31.758Z,-6.60
2019-01-19T05:09:00.697Z,-6.70
2019-01-19T05:11:29.817Z,-6.70
2019-01-19T05:13:59.044Z,-6.80
2019-01-19T05:16:27.902Z,-6.80
2019-01-19T05:18:57.042Z,-6.90
2019-01-19T05:21:26.104Z,-7.00
2019-01-19T05:23:55.023Z,-7.00
2019-01-19T05:26:23.881Z,-7.10
2019-01-19T05:28:53.001Z,-7.10
2019-01-19T05:31:21.869Z,-7.20
2019-01-19T05:33:50.881Z,-7.20
2019-01-19T05:36:20.078Z,-7.20
2019-01-19T05:38:49.449Z,-7.30
2019-01-19T05:41:18.344Z,-7.30
2019-01-19T05:43:47.211Z,-7.30
2019-01-19T05:46:21.414Z,-7.30
2019-01-19T05:48:47.122Z,-7.30
2019-01-19T05:51:16.020Z,-7.40
2019-01-19T05:53:44.850Z,-7.40
2019-01-19T05:56:13.726Z,-7.40
2019-01-19T05:58:42.779Z,-7.40
2019-01-19T06:01:11.705Z,-7.40
2019-01-19T06:03:40.510Z,-7.50
2019-01-19T06:06:09.715Z,-7.50
2019-01-19T06:08:38.870Z,-7.50
2019-01-19T06:11:07.685Z,-7.60
2019-01-19T06:13:36.578Z,-7.60
2019-01-19T06:16:05.446Z,-7.60
2019-01-19T06:18:35.609Z,-7.60
2019-01-19T06:21:06.347Z,-7.60
2019-01-19T06:23:35.851Z,-7.60
2019-01-19T06:26:05.337Z,-7.70
2019-01-19T06:28:34.532Z,-7.70
2019-01-19T06:31:03.663Z,-7.70
2019-01-19T06:33:32.506Z,-7.70
2019-01-19T06:36:01.394Z,-7.80
2019-01-19T06:38:30.354Z,-7.80
2019-01-19T06:40:59.391Z,-7.80
2019-01-19T06:43:28.793Z,-7.80
2019-01-19T06:45:57.590Z,-7.80
2019-01-19T06:48:26.582Z,-7.80
2019-01-19T06:50:56.223Z,-7.80
2019-01-19T06:53:25.120Z,-7.90
2019-01-19T06:55:53.973Z,-7.90
2019-01-19T06:58:22.892Z,-7.90
2019-01-19T07:00:51.904Z,-7.90
2019-01-19T07:03:20.754Z,-7.90
2019-01-19T07:05:49.846Z,-7.90
2019-01-19T07:08:20.321Z,-7.90
2019-01-19T07:10:49.983Z,-7.90
2019-01-19T07:13:19.495Z,-7.90
2019-01-19T07:18:24.042Z,-7.90
2019-01-19T07:20:53.006Z,-7.90
2019-01-19T07:23:21.850Z,-7.90
2019-01-19T07:25:50.717Z,-7.90
2019-01-19T07:28:19.614Z,-7.90
2019-01-19T07:30:48.518Z,-7.90
2019-01-19T07:33:17.419Z,-7.90
2019-01-19T07:35:46.557Z,-7.80
2019-01-19T07:38:15.533Z,-7.80
2019-01-19T07:40:44.492Z,-7.80
2019-01-19T07:43:15.065Z,-7.80
2019-01-19T07:45:43.882Z,-7.70
2019-01-19T07:48:12.669Z,-7.70
2019-01-19T07:50:41.921Z,-7.60
2019-01-19T07:53:10.779Z,-7.60
2019-01-19T07:55:39.981Z,-7.10
2019-01-19T07:58:09.214Z,-7.20
2019-01-19T08:00:38.090Z,-7.30
2019-01-19T08:03:07.337Z,-7.50
2019-01-19T08:05:36.527Z,-7.60
2019-01-19T08:08:05.514Z,-7.60
2019-01-19T08:10:34.373Z,-7.60
2019-01-19T08:13:03.403Z,-7.60
2019-01-19T08:15:32.540Z,-7.60
2019-01-19T08:18:01.592Z,-7.50
2019-01-19T08:20:30.614Z,-7.40
2019-01-19T08:22:59.485Z,-7.40
2019-01-19T08:25:28.513Z,-7.20
2019-01-19T08:27:57.710Z,-7.10
2019-01-19T08:30:28.265Z,-7.00
2019-01-19T08:32:57.206Z,-6.90
2019-01-19T08:35:26.130Z,-6.70
2019-01-19T08:37:54.999Z,-6.60
2019-01-19T08:40:35.226Z,-6.40
2019-01-19T08:43:25.059Z,-6.30
2019-01-19T08:45:53.868Z,-6.10
2019-01-19T08:48:22.729Z,-5.90
2019-01-19T08:50:51.873Z,-5.80
2019-01-19T08:53:20.994Z,-5.60
2019-01-19T08:55:50.114Z,-5.50
2019-01-19T08:58:19.166Z,-5.40
2019-01-19T09:00:47.980Z,-5.30
2019-01-19T09:03:16.912Z,-5.20
2019-01-19T09:05:45.900Z,-5.10
2019-01-19T09:08:14.683Z,-4.90
2019-01-19T09:10:43.458Z,-4.80
2019-01-19T09:13:12.332Z,-4.70
2019-01-19T09:15:41.114Z,-4.60
2019-01-19T09:18:09.900Z,-4.50
2019-01-19T09:20:38.759Z,-4.40
2019-01-19T09:23:18.685Z,-4.30
2019-01-19T09:25:47.625Z,-4.20
2019-01-19T09:28:16.579Z,-4.00
2019-01-19T09:30:45.349Z,-3.90
2019-01-19T09:33:14.291Z,-3.80
2019-01-19T09:35:43.542Z,-3.70
2019-01-19T09:38:12.405Z,-3.60
2019-01-19T09:40:41.603Z,-3.50
2019-01-19T09:43:10.473Z,-3.40
2019-01-19T09:45:39.321Z,-3.30
2019-01-19T09:48:08.185Z,-3.20
2019-01-19T09:50:37.129Z,-3.10
2019-01-19T09:53:06.257Z,-3.00
2019-01-19T09:55:35.117Z,-2.90
2019-01-19T09:58:04.673Z,-2.70
2019-01-19T10:00:37.552Z,-2.70
2019-01-19T10:03:04.429Z,-2.50
2019-01-19T10:05:33.449Z,-2.40
2019-01-19T10:08:02.537Z,-2.30
2019-01-19T10:10:31.661Z,-2.20
2019-01-19T10:13:00.946Z,-1.90
2019-01-19T10:15:29.813Z,-1.70
2019-01-19T10:17:58.917Z,-1.50
2019-01-19T10:20:27.888Z,-1.30
2019-01-19T10:22:56.820Z,-1.10
2019-01-19T10:25:25.824Z,-0.80
2019-01-19T10:27:54.652Z,-0.70
2019-01-19T10:30:25.253Z,-0.20
2019-01-19T10:32:54.125Z,0.30
2019-01-19T10:35:22.998Z,0.70
2019-01-19T10:37:56.131Z,1.10
2019-01-19T10:40:22.862Z,2.30
2019-01-19T10:42:51.733Z,3.60
2019-01-19T10:45:22.650Z,4.30
2019-01-19T10:47:51.593Z,4.30
2019-01-19T10:50:20.659Z,4.10
2019-01-19T10:52:49.639Z,3.40
2019-01-19T10:55:19.591Z,3.20
2019-01-19T10:57:48.542Z,3.20
2019-01-19T11:00:20.326Z,3.10
2019-01-19T11:02:49.250Z,3.00
2019-01-19T11:05:18.278Z,2.90
2019-01-19T11:07:48.263Z,2.60
2019-01-19T11:10:19.172Z,2.40
2019-01-19T11:12:48.056Z,2.10
2019-01-19T11:15:17.275Z,1.90
2019-01-19T11:17:46.126Z,1.50
2019-01-19T11:20:20.559Z,1.30
2019-01-19T11:22:49.530Z,1.10
2019-01-19T11:25:18.614Z,0.70
2019-01-19T11:27:47.813Z,0.50
2019-01-19T11:30:19.074Z,0.30
2019-01-19T11:32:48.673Z,0.10
2019-01-19T11:35:17.912Z,0.00
2019-01-19T11:37:46.974Z,-0.20
2019-01-19T11:40:20.938Z,-0.30
2019-01-19T11:42:49.823Z,-0.40
2019-01-19T11:45:20.346Z,-0.40
2019-01-19T11:47:49.575Z,-0.30
2019-01-19T11:50:18.857Z,-0.30
2019-01-19T11:52:47.969Z,-0.30
2019-01-19T11:55:18.767Z,-0.30
2019-01-19T11:57:49.190Z,-0.20
2019-01-19T12:00:20.027Z,-0.10
2019-01-19T12:02:49.282Z,-0.20
2019-01-19T12:05:18.282Z,-0.20
2019-01-19T12:07:47.271Z,-0.30
2019-01-19T12:10:27.125Z,-0.30
2019-01-19T12:12:57.431Z,-0.30
2019-01-19T12:15:26.928Z,-0.40
2019-01-19T12:17:55.995Z,-0.40
2019-01-19T12:20:36.464Z,-0.30
2019-01-19T12:23:05.753Z,-0.20
2019-01-19T12:25:34.764Z,-0.10
2019-01-19T12:28:03.831Z,-0.10
2019-01-19T12:30:32.824Z,-0.10
2019-01-19T12:33:01.887Z,-0.10
2019-01-19T12:35:30.937Z,-0.10
2019-01-19T12:37:59.951Z,-0.10
2019-01-19T12:40:29.105Z,-0.10
2019-01-19T12:43:03.797Z,-0.10
2019-01-19T12:45:39.075Z,-0.10
2019-01-19T12:48:08.408Z,-0.10
2019-01-19T12:50:37.895Z,0.00
2019-01-19T12:53:07.675Z,0.00
2019-01-19T12:55:36.651Z,-0.10
2019-01-19T12:58:07.041Z,-0.10
2019-01-19T13:00:36.011Z,-0.10
2019-01-19T13:03:05.470Z,-0.10
2019-01-19T13:06:03.832Z,-0.10
2019-01-19T13:08:34.589Z,-0.10
2019-01-19T13:11:28.775Z,-0.10
2019-01-19T13:14:03.296Z,-0.10
2019-01-19T13:17:11.317Z,-0.10
2019-01-19T13:20:20.186Z,-0.20
2019-01-19T13:23:29.068Z,-0.20
2019-01-19T13:26:15.782Z,-0.20
2019-01-19T13:29:19.973Z,-0.20
2019-01-19T13:32:10.853Z,-0.30
2019-01-19T13:35:07.654Z,-0.30
2019-01-19T13:38:00.620Z,-0.30
2019-01-19T13:40:58.824Z,-0.40
2019-01-19T13:43:56.608Z,-0.50
2019-01-19T13:47:07.763Z,-0.50
2019-01-19T13:50:07.898Z,-0.50
2019-01-19T13:52:58.677Z,-0.50
2019-01-19T13:56:14.861Z,-0.40
2019-01-19T13:59:02.401Z,-0.40
2019-01-19T14:02:19.501Z,-0.40
2019-01-19T14:05:09.500Z,-0.40
2019-01-19T14:08:31.542Z,-0.40
2019-01-19T14:11:23.207Z,-0.50
2019-01-19T14:14:28.767Z,-0.60
2019-01-19T14:17:44.973Z,-0.60
2019-01-19T14:20:41.559Z,-0.70
2019-01-19T14:23:48.922Z,-0.80
2019-01-19T14:26:36.376Z,-0.80
2019-01-19T14:29:49.534Z,-0.90
2019-01-19T14:32:55.002Z,-0.90
2019-01-19T14:36:25.787Z,-1.00
2019-01-19T14:39:48.109Z,-1.00
2019-01-19T14:42:55.501Z,-1.00
2019-01-19T14:45:59.014Z,-1.00
2019-01-19T14:49:23.309Z,-1.10
2019-01-19T14:52:04.683Z,-1.20
2019-01-19T14:55:11.342Z,-1.30
2019-01-19T14:58:24.102Z,-1.40
2019-01-19T15:01:15.563Z,-1.60
2019-01-19T15:04:31.354Z,-1.70
2019-01-19T15:07:38.142Z,-1.80
2019-01-19T15:10:25.954Z,-1.90
2019-01-19T15:13:20.432Z,-2.10
2019-01-19T15:16:22.178Z,-2.30
2019-01-19T15:19:29.755Z,-2.50
2019-01-19T15:22:29.038Z,-2.80
2019-01-19T15:24:58.805Z,-3.00
2019-01-19T15:27:58.826Z,-3.20
2019-01-19T15:31:12.750Z,-3.40
2019-01-19T15:34:25.679Z,-3.60
2019-01-19T15:37:31.010Z,-3.80
2019-01-19T15:40:42.699Z,-4.10
2019-01-19T15:43:41.490Z,-4.20
2019-01-19T15:47:02.328Z,-4.40
2019-01-19T15:49:56.605Z,-4.60
2019-01-19T15:52:36.382Z,-4.80
2019-01-19T15:55:28.975Z,-5.00
2019-01-19T15:58:32.091Z,-5.10
2019-01-19T16:01:46.810Z,-5.20
2019-01-19T16:04:43.193Z,-5.40
2019-01-19T16:07:52.054Z,-5.50
2019-01-19T16:10:44.809Z,-5.70
2019-01-19T16:13:48.857Z,-5.90
2019-01-19T16:16:29.469Z,-5.90
2019-01-19T16:19:23.813Z,-6.10
2019-01-19T16:22:50.742Z,-6.20
2019-01-19T16:25:49.495Z,-6.30
2019-01-19T16:28:55.374Z,-6.40
2019-01-19T16:31:52.893Z,-6.50
2019-01-19T16:35:17.842Z,-6.60
2019-01-19T16:38:18.354Z,-6.60
2019-01-19T16:41:24.453Z,-6.70
2019-01-19T16:44:29.909Z,-6.80
2019-01-19T16:47:42.987Z,-6.90
2019-01-19T16:50:53.186Z,-7.00
2019-01-19T16:53:40.043Z,-7.00
2019-01-19T16:56:54.933Z,-7.10
2019-01-19T16:59:42.425Z,-7.20
2019-01-19T17:02:55.693Z,-7.10
2019-01-19T17:05:59.368Z,-7.10
2019-01-19T17:09:06.210Z,-7.20
2019-01-19T17:12:05.442Z,-7.20
2019-01-19T17:15:00.901Z,-7.30
2019-01-19T17:17:53.876Z,-7.40
2019-01-19T17:21:02.191Z,-7.40
2019-01-19T17:23:47.410Z,-7.50
2019-01-19T17:26:55.968Z,-7.60
2019-01-19T17:30:02.502Z,-7.70
2019-01-19T17:33:14.338Z,-7.90
2019-01-19T17:36:08.550Z,-7.90
2019-01-19T17:39:18.709Z,-8.00
2019-01-19T17:42:24.808Z,-8.00
2019-01-19T17:45:38.019Z,-8.20
2019-01-19T17:48:23.666Z,-8.30
2019-01-19T17:51:31.313Z,-8.30
2019-01-19T17:54:29.985Z,-8.40
2019-01-19T17:57:40.265Z,-8.40
2019-01-19T18:00:49.012Z,-8.50
2019-01-19T18:03:49.409Z,-8.50
2019-01-19T18:06:40.646Z,-8.60
2019-01-19T18:09:47.739Z,-8.60
2019-01-19T18:12:49.423Z,-8.70
2019-01-19T18:15:39.317Z,-8.80
2019-01-19T18:18:20.758Z,-8.80
2019-01-19T18:20:59.789Z,-8.90
2019-01-19T18:23:58.097Z,-8.90
2019-01-19T18:26:44.105Z,-9.00
2019-01-19T18:30:09.230Z,-9.00
2019-01-19T18:32:47.161Z,-9.10
2019-01-19T18:35:53.137Z,-9.10
2019-01-19T18:39:18.121Z,-9.10
2019-01-19T18:42:37.482Z,-9.10
2019-01-19T18:45:52.697Z,-9.20
2019-01-19T18:48:53.660Z,-9.10
2019-01-19T18:52:02.383Z,-9.20
2019-01-19T18:54:49.527Z,-9.20
2019-01-19T18:58:14.668Z,-9.20
2019-01-19T19:01:00.434Z,-9.30
2019-01-19T19:04:04.228Z,-9.40
2019-01-19T19:07:09.050Z,-9.40
2019-01-19T19:10:06.810Z,-9.50
2019-01-19T19:13:07.154Z,-9.50
2019-01-19T19:16:12.904Z,-9.50
2019-01-19T19:19:11.821Z,-9.50
2019-01-19T19:22:18.204Z,-9.60
2019-01-19T19:25:28.873Z,-9.60
2019-01-19T19:28:33.688Z,-9.70
2019-01-19T19:31:34.070Z,-9.70
2019-01-19T19:34:56.293Z,-9.70
2019-01-19T19:38:04.678Z,-9.70
2019-01-19T19:41:20.461Z,-9.80
2019-01-19T19:44:29.163Z,-9.80
2019-01-19T19:47:34.903Z,-9.90
2019-01-19T19:50:53.336Z,-9.90
2019-01-19T19:53:22.262Z,-10.00
2019-01-19T19:55:49.717Z,-10.00
2019-01-19T19:58:18.572Z,-10.00
2019-01-19T20:00:47.545Z,-9.90
2019-01-19T20:03:16.421Z,-9.90
2019-01-19T20:05:45.406Z,-10.00
2019-01-19T20:08:14.354Z,-10.00
2019-01-19T20:10:43.298Z,-10.00
2019-01-19T20:13:12.145Z,-10.00
2019-01-19T20:15:41.082Z,-10.10
2019-01-19T20:18:10.027Z,-10.10
2019-01-19T20:20:39.237Z,-10.10
2019-01-19T20:23:08.178Z,-10.10
2019-01-19T20:25:36.961Z,-10.10
2019-01-19T20:28:05.900Z,-10.10
2019-01-19T20:30:34.884Z,-10.10
2019-01-19T20:33:03.944Z,-10.10
2019-01-19T20:35:33.448Z,-10.10
2019-01-19T20:38:02.351Z,-10.10
2019-01-19T20:40:31.242Z,-10.10
2019-01-19T20:43:00.037Z,-10.10
2019-01-19T20:45:28.977Z,-10.20
2019-01-19T20:47:58.144Z,-10.20
2019-01-19T20:50:26.941Z,-10.20
2019-01-19T20:52:55.830Z,-10.20
2019-01-19T20:55:24.611Z,-10.20
2019-01-19T20:57:53.422Z,-10.30
2019-01-19T21:00:22.715Z,-10.30
2019-01-19T21:02:51.523Z,-10.30
2019-01-19T21:05:20.302Z,-10.30
2019-01-19T21:07:49.102Z,-10.30
2019-01-19T21:10:17.971Z,-10.30
2019-01-19T21:12:46.851Z,-10.30
2019-01-19T21:15:15.794Z,-10.30
2019-01-19T21:17:44.891Z,-10.30
2019-01-19T21:20:14.613Z,-10.40
2019-01-19T21:22:43.773Z,-10.40
2019-01-19T21:25:12.873Z,-10.40
2019-01-19T21:27:42.210Z,-10.50
2019-01-19T21:30:11.819Z,-10.50
2019-01-19T21:32:40.686Z,-10.50
2019-01-19T21:35:09.812Z,-10.50
2019-01-19T21:37:38.853Z,-10.50
2019-01-19T21:40:09.294Z,-10.50
2019-01-19T21:42:38.127Z,-10.60
2019-01-19T21:45:11.352Z,-10.60
2019-01-19T21:47:40.150Z,-10.60
2019-01-19T21:50:09.792Z,-10.60
2019-01-19T21:52:38.606Z,-10.60
2019-01-19T21:55:07.997Z,-10.60
2019-01-19T21:57:37.050Z,-10.60
2019-01-19T22:00:09.184Z,-10.70
2019-01-19T22:02:38.147Z,-10.70
2019-01-19T22:05:07.602Z,-10.70
2019-01-19T22:07:36.405Z,-10.70
2019-01-19T22:10:07.217Z,-10.70
2019-01-19T22:12:36.065Z,-10.70
2019-01-19T22:15:07.441Z,-10.70
2019-01-19T22:17:39.842Z,-10.70
2019-01-19T22:20:07.826Z,-10.70
2019-01-19T22:22:36.607Z,-10.70
2019-01-19T22:25:05.893Z,-10.80
2019-01-19T22:27:36.269Z,-10.80
2019-01-19T22:30:07.933Z,-10.80
2019-01-19T22:32:36.725Z,-10.80
2019-01-19T22:35:06.129Z,-10.90
2019-01-19T22:37:35.165Z,-10.90
2019-01-19T22:40:05.033Z,-10.90
2019-01-19T22:42:33.846Z,-10.90
2019-01-19T22:45:02.812Z,-10.90
2019-01-19T22:47:31.743Z,-11.00
2019-01-19T22:50:00.690Z,-11.00
2019-01-19T22:52:29.813Z,-11.00
2019-01-19T22:54:58.697Z,-11.00
2019-01-19T22:57:27.744Z,-11.00
2019-01-19T22:59:56.557Z,-11.00
2019-01-19T23:02:25.507Z,-11.00
2019-01-19T23:04:54.321Z,-11.00
2019-01-19T23:07:23.187Z,-11.10
2019-01-19T23:09:52.173Z,-11.10
2019-01-19T23:12:20.961Z,-11.10
2019-01-19T23:14:50.141Z,-11.10
2019-01-19T23:17:18.942Z,-11.20
2019-01-19T23:19:48.019Z,-11.20
2019-01-19T23:22:16.810Z,-11.20
2019-01-19T23:24:46.198Z,-11.20
2019-01-19T23:27:15.301Z,-11.20
2019-01-19T23:29:44.862Z,-11.20
2019-01-19T23:32:13.886Z,-11.20
2019-01-19T23:34:42.759Z,-11.30
2019-01-19T23:37:11.635Z,-11.30
2019-01-19T23:39:40.594Z,-11.30
2019-01-19T23:42:09.460Z,-11.30
2019-01-19T23:44:38.237Z,-11.30
2019-01-19T23:47:07.660Z,-11.30
2019-01-19T23:49:36.549Z,-11.30
2019-01-19T23:52:05.437Z,-11.30
2019-01-19T23:54:34.310Z,-11.40
2019-01-19T23:57:03.442Z,-11.40
2019-01-19T23:59:32.468Z,-11.40
